sensor_id;sensor_type;location;lat;lon;timestamp;pressure;altitude;pressure_sealevel;temperature;humidity
75617;BME280;64200;55.426;37.758;2022-12-29T00:02:23;99084.25;;;-0.19;75.28
75617;BME280;64200;55.426;37.758;2022-12-29T00:07:24;99095.63;;;-0.20;73.83
75617;BME280;64200;55.426;37.758;2022-12-29T00:12:24;99100.50;;;-0.39;74.17
75617;BME280;64200;55.426;37.758;2022-12-29T00:17:25;99100.16;;;-0.44;74.83
75617;BME280;64200;55.426;37.758;2022-12-29T00:22:26;99094.34;;;-0.50;74.48
75617;BME280;64200;55.426;37.758;2022-12-29T00:27:45;99102.47;;;-0.39;73.52
75617;BME280;64200;55.426;37.758;2022-12-29T00:33:18;99102.09;;;-0.45;73.88
75617;BME280;64200;55.426;37.758;2022-12-29T00:38:40;99109.47;;;-0.34;74.20
75617;BME280;64200;55.426;37.758;2022-12-29T00:44:02;99116.53;;;-0.37;72.88
75617;BME280;64200;55.426;37.758;2022-12-29T00:49:06;99116.25;;;-0.50;72.34
75617;BME280;64200;55.426;37.758;2022-12-29T00:54:28;99120.56;;;-0.52;72.89
75617;BME280;64200;55.426;37.758;2022-12-29T00:59:29;99114.75;;;-0.58;72.45
75617;BME280;64200;55.426;37.758;2022-12-29T01:04:30;99119.81;;;-0.57;72.41
75617;BME280;64200;55.426;37.758;2022-12-29T01:09:31;99118.75;;;-0.70;72.78
75617;BME280;64200;55.426;37.758;2022-12-29T01:14:50;99126.19;;;-0.71;72.61
75617;BME280;64200;55.426;37.758;2022-12-29T01:19:51;99121.88;;;-0.68;72.98
75617;BME280;64200;55.426;37.758;2022-12-29T01:24:51;99119.63;;;-0.88;73.28
75617;BME280;64200;55.426;37.758;2022-12-29T01:29:52;99117.72;;;-0.91;73.23
75617;BME280;64200;55.426;37.758;2022-12-29T01:34:52;99118.06;;;-0.81;73.36
75617;BME280;64200;55.426;37.758;2022-12-29T01:39:53;99124.72;;;-0.86;72.80
75617;BME280;64200;55.426;37.758;2022-12-29T01:44:59;99126.31;;;-0.92;73.06
75617;BME280;64200;55.426;37.758;2022-12-29T01:55:17;99125.91;;;-0.91;73.18
75617;BME280;64200;55.426;37.758;2022-12-29T02:00:18;99127.75;;;-0.69;73.54
75617;BME280;64200;55.426;37.758;2022-12-29T02:10:31;99126.19;;;-0.74;73.17
75617;BME280;64200;55.426;37.758;2022-12-29T02:15:48;99126.19;;;-0.74;73.03
75617;BME280;64200;55.426;37.758;2022-12-29T02:37:13;99153.28;;;-0.87;72.56
75617;BME280;64200;55.426;37.758;2022-12-29T02:42:37;99146.94;;;-0.73;72.68
75617;BME280;64200;55.426;37.758;2022-12-29T02:53:05;99158.38;;;-0.85;72.58
75617;BME280;64200;55.426;37.758;2022-12-29T02:58:20;99165.44;;;-0.95;72.32
75617;BME280;64200;55.426;37.758;2022-12-29T03:24:22;99171.72;;;-0.95;72.70
75617;BME280;64200;55.426;37.758;2022-12-29T03:29:27;99173.25;;;-0.90;73.96
75617;BME280;64200;55.426;37.758;2022-12-29T03:34:30;99177.22;;;-0.95;73.25
75617;BME280;64200;55.426;37.758;2022-12-29T03:39:31;99175.91;;;-0.76;73.24
75617;BME280;64200;55.426;37.758;2022-12-29T03:44:37;99175.88;;;-0.72;73.34
75617;BME280;64200;55.426;37.758;2022-12-29T03:49:39;99167.38;;;-0.92;72.99
75617;BME280;64200;55.426;37.758;2022-12-29T03:54:40;99172.84;;;-0.85;73.51
75617;BME280;64200;55.426;37.758;2022-12-29T03:59:40;99179.47;;;-0.82;72.42
75617;BME280;64200;55.426;37.758;2022-12-29T04:04:41;99193.19;;;-0.90;73.29
75617;BME280;64200;55.426;37.758;2022-12-29T04:09:41;99193.13;;;-0.79;73.30
75617;BME280;64200;55.426;37.758;2022-12-29T04:14:42;99192.00;;;-0.85;72.41
75617;BME280;64200;55.426;37.758;2022-12-29T04:19:42;99191.22;;;-0.89;72.68
75617;BME280;64200;55.426;37.758;2022-12-29T04:24:43;99188.13;;;-0.91;72.38
75617;BME280;64200;55.426;37.758;2022-12-29T04:29:43;99205.28;;;-0.83;72.44
75617;BME280;64200;55.426;37.758;2022-12-29T04:34:44;99207.25;;;-0.88;72.37
75617;BME280;64200;55.426;37.758;2022-12-29T04:39:45;99215.97;;;-1.07;72.36
75617;BME280;64200;55.426;37.758;2022-12-29T04:44:47;99230.53;;;-1.35;71.82
75617;BME280;64200;55.426;37.758;2022-12-29T04:49:47;99239.94;;;-1.44;72.87
75617;BME280;64200;55.426;37.758;2022-12-29T04:54:48;99240.69;;;-1.47;73.08
75617;BME280;64200;55.426;37.758;2022-12-29T04:59:48;99236.41;;;-1.44;72.67
75617;BME280;64200;55.426;37.758;2022-12-29T05:04:49;99247.34;;;-1.40;73.45
75617;BME280;64200;55.426;37.758;2022-12-29T05:09:49;99243.44;;;-1.39;72.86
75617;BME280;64200;55.426;37.758;2022-12-29T05:14:50;99222.34;;;-1.39;72.88
75617;BME280;64200;55.426;37.758;2022-12-29T05:19:50;99245.75;;;-1.31;73.73
75617;BME280;64200;55.426;37.758;2022-12-29T05:24:51;99251.25;;;-1.38;73.07
75617;BME280;64200;55.426;37.758;2022-12-29T05:29:51;99254.38;;;-1.29;73.66
75617;BME280;64200;55.426;37.758;2022-12-29T05:34:52;99261.41;;;-1.31;73.02
75617;BME280;64200;55.426;37.758;2022-12-29T05:39:53;99266.06;;;-1.25;73.45
75617;BME280;64200;55.426;37.758;2022-12-29T05:44:53;99266.06;;;-1.21;72.58
75617;BME280;64200;55.426;37.758;2022-12-29T05:49:54;99265.25;;;-1.11;73.85
75617;BME280;64200;55.426;37.758;2022-12-29T05:54:54;99267.19;;;-1.00;73.05
75617;BME280;64200;55.426;37.758;2022-12-29T05:59:55;99267.91;;;-0.96;72.38
75617;BME280;64200;55.426;37.758;2022-12-29T06:04:55;99271.84;;;-0.97;72.69
75617;BME280;64200;55.426;37.758;2022-12-29T06:09:56;99267.19;;;-1.00;71.90
75617;BME280;64200;55.426;37.758;2022-12-29T06:14:56;99269.13;;;-1.01;71.39
75617;BME280;64200;55.426;37.758;2022-12-29T06:19:57;99270.66;;;-0.93;71.84
75617;BME280;64200;55.426;37.758;2022-12-29T06:24:58;99275.31;;;-0.86;72.16
75617;BME280;64200;55.426;37.758;2022-12-29T06:29:59;99277.63;;;-0.77;71.29
75617;BME280;64200;55.426;37.758;2022-12-29T06:34:59;99274.53;;;-0.83;71.71
75617;BME280;64200;55.426;37.758;2022-12-29T06:40:00;99276.06;;;-0.75;71.07
75617;BME280;64200;55.426;37.758;2022-12-29T06:45:01;99272.16;;;-0.77;71.52
75617;BME280;64200;55.426;37.758;2022-12-29T06:50:02;99273.66;;;-0.65;71.37
75617;BME280;64200;55.426;37.758;2022-12-29T06:55:04;99282.28;;;-0.63;71.62
75617;BME280;64200;55.426;37.758;2022-12-29T07:00:05;99290.41;;;-0.49;71.33
75617;BME280;64200;55.426;37.758;2022-12-29T07:05:06;99282.94;;;-0.41;71.49
75617;BME280;64200;55.426;37.758;2022-12-29T07:10:08;99278.59;;;-0.35;71.14
75617;BME280;64200;55.426;37.758;2022-12-29T07:15:08;99283.28;;;-0.32;70.62
75617;BME280;64200;55.426;37.758;2022-12-29T07:20:10;99285.59;;;-0.30;70.29
75617;BME280;64200;55.426;37.758;2022-12-29T07:25:10;99285.97;;;-0.25;70.42
75617;BME280;64200;55.426;37.758;2022-12-29T07:30:11;99284.41;;;-0.26;70.47
75617;BME280;64200;55.426;37.758;2022-12-29T07:35:12;99284.81;;;-0.24;70.21
75617;BME280;64200;55.426;37.758;2022-12-29T07:40:13;99291.06;;;-0.23;70.21
75617;BME280;64200;55.426;37.758;2022-12-29T07:45:13;99294.28;;;-0.36;69.17
75617;BME280;64200;55.426;37.758;2022-12-29T07:50:14;99295.97;;;-0.63;68.96
75617;BME280;64200;55.426;37.758;2022-12-29T07:55:15;99301.34;;;-0.45;70.01
75617;BME280;64200;55.426;37.758;2022-12-29T08:00:16;99318.97;;;-0.43;68.43
75617;BME280;64200;55.426;37.758;2022-12-29T08:05:17;99316.63;;;-0.48;69.68
75617;BME280;64200;55.426;37.758;2022-12-29T08:10:18;99310.25;;;-0.23;70.31
75617;BME280;64200;55.426;37.758;2022-12-29T08:15:19;99308.91;;;0.90;70.86
75617;BME280;64200;55.426;37.758;2022-12-29T08:20:19;99311.91;;;4.40;64.57
75617;BME280;64200;55.426;37.758;2022-12-29T08:25:20;99309.69;;;3.82;60.94
75617;BME280;64200;55.426;37.758;2022-12-29T08:30:20;99305.88;;;2.55;60.67
75617;BME280;64200;55.426;37.758;2022-12-29T08:35:21;99313.78;;;2.30;63.72
75617;BME280;64200;55.426;37.758;2022-12-29T08:40:21;99321.19;;;3.00;61.92
75617;BME280;64200;55.426;37.758;2022-12-29T08:45:22;99314.22;;;3.36;61.17
75617;BME280;64200;55.426;37.758;2022-12-29T08:50:23;99303.78;;;6.05;61.05
75617;BME280;64200;55.426;37.758;2022-12-29T08:55:23;99315.00;;;8.36;51.98
75617;BME280;64200;55.426;37.758;2022-12-29T09:00:24;99310.47;;;8.79;51.13
75617;BME280;64200;55.426;37.758;2022-12-29T09:05:25;99306.84;;;6.94;46.96
75617;BME280;64200;55.426;37.758;2022-12-29T09:10:26;99308.59;;;3.96;52.17
75617;BME280;64200;55.426;37.758;2022-12-29T09:15:26;99304.28;;;2.78;55.56
75617;BME280;64200;55.426;37.758;2022-12-29T09:20:27;99306.03;;;1.93;57.59
75617;BME280;64200;55.426;37.758;2022-12-29T09:25:28;99302.16;;;1.64;58.94
75617;BME280;64200;55.426;37.758;2022-12-29T09:30:28;99303.16;;;1.46;60.35
75617;BME280;64200;55.426;37.758;2022-12-29T09:35:29;99303.47;;;1.52;61.62
75617;BME280;64200;55.426;37.758;2022-12-29T09:40:32;99301.88;;;1.54;61.21
75617;BME280;64200;55.426;37.758;2022-12-29T09:45:42;99302.63;;;1.28;62.37
75617;BME280;64200;55.426;37.758;2022-12-29T09:50:53;99298.25;;;1.30;62.66
75617;BME280;64200;55.426;37.758;2022-12-29T09:55:58;99296.88;;;1.15;62.70
75617;BME280;64200;55.426;37.758;2022-12-29T10:01:06;99306.06;;;1.01;62.69
75617;BME280;64200;55.426;37.758;2022-12-29T10:06:11;99302.53;;;1.00;63.86
75617;BME280;64200;55.426;37.758;2022-12-29T10:22:07;99296.81;;;1.18;64.39
75617;BME280;64200;55.426;37.758;2022-12-29T10:27:12;99297.28;;;1.13;63.78
75617;BME280;64200;55.426;37.758;2022-12-29T10:32:34;99308.56;;;1.22;63.98
75617;BME280;64200;55.426;37.758;2022-12-29T10:37:45;99316.78;;;1.22;64.09
75617;BME280;64200;55.426;37.758;2022-12-29T10:42:53;99306.63;;;1.19;63.79
75617;BME280;64200;55.426;37.758;2022-12-29T10:48:03;99313.97;;;1.30;64.65
75617;BME280;64200;55.426;37.758;2022-12-29T10:53:06;99309.97;;;1.34;64.62
75617;BME280;64200;55.426;37.758;2022-12-29T10:58:11;99312.31;;;1.36;64.46
75617;BME280;64200;55.426;37.758;2022-12-29T11:08:30;99298.44;;;1.16;64.54
75617;BME280;64200;55.426;37.758;2022-12-29T11:13:48;99290.97;;;1.16;64.85
75617;BME280;64200;55.426;37.758;2022-12-29T11:18:49;99274.84;;;1.18;64.96
75617;BME280;64200;55.426;37.758;2022-12-29T11:24:03;99274.03;;;1.21;65.34
75617;BME280;64200;55.426;37.758;2022-12-29T11:34:08;99288.88;;;1.28;65.19
75617;BME280;64200;55.426;37.758;2022-12-29T11:39:28;99267.47;;;1.12;65.14
75617;BME280;64200;55.426;37.758;2022-12-29T11:44:36;99274.91;;;1.15;64.97
75617;BME280;64200;55.426;37.758;2022-12-29T11:49:38;99302.84;;;1.06;65.39
75617;BME280;64200;55.426;37.758;2022-12-29T11:54:39;99294.47;;;0.86;65.64
75617;BME280;64200;55.426;37.758;2022-12-29T12:04:56;99307.16;;;1.07;66.09
75617;BME280;64200;55.426;37.758;2022-12-29T12:10:01;99310.34;;;1.02;66.08
75617;BME280;64200;55.426;37.758;2022-12-29T12:15:04;99324.16;;;0.95;66.79
75617;BME280;64200;55.426;37.758;2022-12-29T12:25:23;99295.72;;;0.78;67.04
75617;BME280;64200;55.426;37.758;2022-12-29T12:30:27;99307.47;;;0.78;67.16
75617;BME280;64200;55.426;37.758;2022-12-29T12:41:16;99298.16;;;0.68;67.36
75617;BME280;64200;55.426;37.758;2022-12-29T13:07:45;99307.03;;;-0.11;70.53
75617;BME280;64200;55.426;37.758;2022-12-29T13:39:35;99308.03;;;0.13;71.23
75617;BME280;64200;55.426;37.758;2022-12-29T13:45:02;99315.47;;;0.16;71.17
75617;BME280;64200;55.426;37.758;2022-12-29T13:50:13;99299.97;;;-0.08;71.38
75617;BME280;64200;55.426;37.758;2022-12-29T14:00:52;99311.19;;;0.08;71.63
75617;BME280;64200;55.426;37.758;2022-12-29T14:11:18;99308.09;;;0.03;71.66
75617;BME280;64200;55.426;37.758;2022-12-29T14:16:26;99314.41;;;-0.01;71.87
75617;BME280;64200;55.426;37.758;2022-12-29T14:21:27;99308.91;;;0.03;71.57
75617;BME280;64200;55.426;37.758;2022-12-29T14:36:37;99318.13;;;-0.36;72.71
75617;BME280;64200;55.426;37.758;2022-12-29T14:41:39;99300.59;;;-0.46;73.03
75617;BME280;64200;55.426;37.758;2022-12-29T14:51:45;99303.72;;;-0.47;73.54
75617;BME280;64200;55.426;37.758;2022-12-29T14:56:46;99300.91;;;-0.40;73.22
75617;BME280;64200;55.426;37.758;2022-12-29T15:01:50;99299.31;;;-0.30;73.00
75617;BME280;64200;55.426;37.758;2022-12-29T15:06:52;99315.47;;;-0.47;73.57
75617;BME280;64200;55.426;37.758;2022-12-29T15:11:57;99314.28;;;-0.46;73.42
75617;BME280;64200;55.426;37.758;2022-12-29T15:17:00;99308.75;;;-0.35;73.78
75617;BME280;64200;55.426;37.758;2022-12-29T15:22:01;99305.16;;;-0.28;74.09
75617;BME280;64200;55.426;37.758;2022-12-29T15:27:03;99316.88;;;-0.24;73.19
75617;BME280;64200;55.426;37.758;2022-12-29T15:32:25;99304.28;;;-0.11;73.10
75617;BME280;64200;55.426;37.758;2022-12-29T15:37:32;99307.00;;;-0.07;72.46
75617;BME280;64200;55.426;37.758;2022-12-29T15:48:04;99302.19;;;0.08;72.55
75617;BME280;64200;55.426;37.758;2022-12-29T15:53:11;99297.53;;;0.01;72.64
75617;BME280;64200;55.426;37.758;2022-12-29T15:58:21;99291.28;;;-0.03;72.31
75617;BME280;64200;55.426;37.758;2022-12-29T16:03:24;99279.66;;;-0.18;72.84
75617;BME280;64200;55.426;37.758;2022-12-29T16:08:32;99277.88;;;-0.43;72.93
75617;BME280;64200;55.426;37.758;2022-12-29T16:13:37;99278.22;;;-0.41;73.64
75617;BME280;64200;55.426;37.758;2022-12-29T16:18:38;99266.81;;;-0.32;73.41
75617;BME280;64200;55.426;37.758;2022-12-29T16:23:40;99261.72;;;-0.26;73.23
75617;BME280;64200;55.426;37.758;2022-12-29T16:28:47;99259.34;;;-0.24;73.61
75617;BME280;64200;55.426;37.758;2022-12-29T16:33:53;99260.81;;;-0.09;73.12
75617;BME280;64200;55.426;37.758;2022-12-29T16:44:29;99256.50;;;-0.13;72.99
75617;BME280;64200;55.426;37.758;2022-12-29T16:49:31;99245.72;;;-0.35;72.84
75617;BME280;64200;55.426;37.758;2022-12-29T16:54:35;99234.03;;;-0.46;73.35
75617;BME280;64200;55.426;37.758;2022-12-29T16:59:42;99235.91;;;-0.36;73.99
75617;BME280;64200;55.426;37.758;2022-12-29T17:04:43;99253.50;;;-0.26;73.41
75617;BME280;64200;55.426;37.758;2022-12-29T17:09:48;99248.53;;;-0.46;73.79
75617;BME280;64200;55.426;37.758;2022-12-29T17:14:56;99243.75;;;-0.34;73.66
75617;BME280;64200;55.426;37.758;2022-12-29T17:20:04;99241.00;;;-0.34;73.70
75617;BME280;64200;55.426;37.758;2022-12-29T17:25:06;99248.72;;;-0.19;73.45
75617;BME280;64200;55.426;37.758;2022-12-29T17:30:11;99241.69;;;-0.20;73.16
75617;BME280;64200;55.426;37.758;2022-12-29T17:35:16;99238.47;;;-0.11;73.38
75617;BME280;64200;55.426;37.758;2022-12-29T17:40:20;99235.72;;;-0.07;73.23
75617;BME280;64200;55.426;37.758;2022-12-29T17:45:24;99235.78;;;-0.14;73.43
75617;BME280;64200;55.426;37.758;2022-12-29T17:50:27;99227.59;;;-0.22;73.42
75617;BME280;64200;55.426;37.758;2022-12-29T17:55:32;99216.66;;;-0.25;73.81
75617;BME280;64200;55.426;37.758;2022-12-29T18:00:34;99203.03;;;-0.32;73.94
75617;BME280;64200;55.426;37.758;2022-12-29T18:05:34;99212.38;;;-0.30;73.84
75617;BME280;64200;55.426;37.758;2022-12-29T18:10:35;99213.25;;;-0.40;74.25
75617;BME280;64200;55.426;37.758;2022-12-29T18:15:36;99204.97;;;-0.29;73.99
75617;BME280;64200;55.426;37.758;2022-12-29T18:20:37;99203.06;;;-0.40;73.58
75617;BME280;64200;55.426;37.758;2022-12-29T18:25:46;99219.56;;;-0.50;74.27
75617;BME280;64200;55.426;37.758;2022-12-29T18:30:48;99207.75;;;-0.40;74.59
75617;BME280;64200;55.426;37.758;2022-12-29T18:35:57;99207.00;;;-0.41;74.78
75617;BME280;64200;55.426;37.758;2022-12-29T18:40:58;99210.50;;;-0.37;74.60
75617;BME280;64200;55.426;37.758;2022-12-29T18:45:59;99202.69;;;-0.42;74.24
75617;BME280;64200;55.426;37.758;2022-12-29T18:50:59;99202.66;;;-0.38;74.42
75617;BME280;64200;55.426;37.758;2022-12-29T18:56:00;99201.88;;;-0.35;74.75
75617;BME280;64200;55.426;37.758;2022-12-29T19:01:01;99202.66;;;-0.38;74.58
75617;BME280;64200;55.426;37.758;2022-12-29T19:06:01;99199.13;;;-0.35;74.70
75617;BME280;64200;55.426;37.758;2022-12-29T19:11:02;99197.25;;;-0.45;74.44
75617;BME280;64200;55.426;37.758;2022-12-29T19:16:03;99200.75;;;-0.45;74.95
75617;BME280;64200;55.426;37.758;2022-12-29T19:21:03;99192.56;;;-0.48;74.80
75617;BME280;64200;55.426;37.758;2022-12-29T19:26:23;99190.19;;;-0.46;75.18
75617;BME280;64200;55.426;37.758;2022-12-29T19:31:26;99173.44;;;-0.56;74.19
75617;BME280;64200;55.426;37.758;2022-12-29T19:36:27;99185.56;;;-0.57;75.01
75617;BME280;64200;55.426;37.758;2022-12-29T19:41:27;99182.47;;;-0.59;75.33
75617;BME280;64200;55.426;37.758;2022-12-29T19:46:28;99179.31;;;-0.61;74.71
75617;BME280;64200;55.426;37.758;2022-12-29T19:51:29;99176.94;;;-0.51;74.98
75617;BME280;64200;55.426;37.758;2022-12-29T19:56:30;99183.28;;;-0.65;75.62
75617;BME280;64200;55.426;37.758;2022-12-29T20:01:31;99174.31;;;-0.69;75.84
75617;BME280;64200;55.426;37.758;2022-12-29T20:06:31;99170.09;;;-0.81;76.01
75617;BME280;64200;55.426;37.758;2022-12-29T20:11:32;99171.22;;;-0.79;75.87
75617;BME280;64200;55.426;37.758;2022-12-29T20:16:32;99178.63;;;-0.72;76.32
75617;BME280;64200;55.426;37.758;2022-12-29T20:21:33;99177.03;;;-0.66;76.35
75617;BME280;64200;55.426;37.758;2022-12-29T20:26:34;99170.38;;;-0.65;76.07
75617;BME280;64200;55.426;37.758;2022-12-29T20:31:36;99175.09;;;-0.73;76.10
75617;BME280;64200;55.426;37.758;2022-12-29T20:36:39;99171.22;;;-0.79;75.76
75617;BME280;64200;55.426;37.758;2022-12-29T20:41:40;99168.44;;;-0.72;76.82
75617;BME280;64200;55.426;37.758;2022-12-29T20:46:41;99157.91;;;-0.73;76.32
75617;BME280;64200;55.426;37.758;2022-12-29T20:51:41;99164.50;;;-0.63;76.01
75617;BME280;64200;55.426;37.758;2022-12-29T20:56:46;99162.13;;;-0.61;76.83
75617;BME280;64200;55.426;37.758;2022-12-29T21:01:46;99152.38;;;-0.66;75.88
75617;BME280;64200;55.426;37.758;2022-12-29T21:06:47;99146.41;;;-0.54;75.99
75617;BME280;64200;55.426;37.758;2022-12-29T21:11:48;99141.31;;;-0.55;75.76
75617;BME280;64200;55.426;37.758;2022-12-29T21:16:50;99149.44;;;-0.41;75.73
75617;BME280;64200;55.426;37.758;2022-12-29T21:21:50;99127.22;;;-0.54;76.13
75617;BME280;64200;55.426;37.758;2022-12-29T21:26:51;99126.50;;;-0.58;75.56
75617;BME280;64200;55.426;37.758;2022-12-29T21:31:51;99118.69;;;-0.63;76.41
75617;BME280;64200;55.426;37.758;2022-12-29T21:36:52;99106.13;;;-0.57;76.17
75617;BME280;64200;55.426;37.758;2022-12-29T21:41:52;99107.28;;;-0.54;76.02
75617;BME280;64200;55.426;37.758;2022-12-29T21:46:59;99102.25;;;-0.59;76.02
75617;BME280;64200;55.426;37.758;2022-12-29T21:51:59;99097.09;;;-0.54;76.25
75617;BME280;64200;55.426;37.758;2022-12-29T21:57:00;99103.78;;;-0.58;75.71
75617;BME280;64200;55.426;37.758;2022-12-29T22:02:09;99104.28;;;-0.71;76.42
75617;BME280;64200;55.426;37.758;2022-12-29T22:07:31;99096.78;;;-0.59;76.67
75617;BME280;64200;55.426;37.758;2022-12-29T22:12:50;99112.09;;;-0.73;76.35
75617;BME280;64200;55.426;37.758;2022-12-29T22:18:00;99098.50;;;-0.80;76.58
75617;BME280;64200;55.426;37.758;2022-12-29T22:23:01;99097.25;;;-0.72;76.67
75617;BME280;64200;55.426;37.758;2022-12-29T22:28:02;99106.53;;;-0.58;76.86
75617;BME280;64200;55.426;37.758;2022-12-29T22:33:03;99094.59;;;-0.37;76.60
75617;BME280;64200;55.426;37.758;2022-12-29T22:38:03;99104.38;;;-0.32;76.24
75617;BME280;64200;55.426;37.758;2022-12-29T22:43:04;99095.41;;;-0.37;76.15
75617;BME280;64200;55.426;37.758;2022-12-29T22:48:05;99093.13;;;-0.45;75.76
75617;BME280;64200;55.426;37.758;2022-12-29T22:53:05;99094.69;;;-0.48;76.71
75617;BME280;64200;55.426;37.758;2022-12-29T22:58:06;99091.19;;;-0.48;76.47
75617;BME280;64200;55.426;37.758;2022-12-29T23:03:06;99090.84;;;-0.54;75.99
75617;BME280;64200;55.426;37.758;2022-12-29T23:08:07;99092.78;;;-0.51;76.23
75617;BME280;64200;55.426;37.758;2022-12-29T23:13:07;99076.50;;;-0.73;77.10
75617;BME280;64200;55.426;37.758;2022-12-29T23:18:08;99082.38;;;-0.74;77.06
75617;BME280;64200;55.426;37.758;2022-12-29T23:23:09;99077.28;;;-0.72;77.08
75617;BME280;64200;55.426;37.758;2022-12-29T23:28:10;99080.78;;;-0.68;77.76
75617;BME280;64200;55.426;37.758;2022-12-29T23:33:10;99081.97;;;-0.69;77.36
75617;BME280;64200;55.426;37.758;2022-12-29T23:38:11;99068.97;;;-0.58;77.26
75617;BME280;64200;55.426;37.758;2022-12-29T23:43:12;99071.59;;;-0.47;77.57
75617;BME280;64200;55.426;37.758;2022-12-29T23:48:12;99072.78;;;-0.44;77.58
75617;BME280;64200;55.426;37.758;2022-12-29T23:53:13;99060.19;;;-0.38;77.37
75617;BME280;64200;55.426;37.758;2022-12-29T23:58:13;99082.16;;;-0.45;76.63
